Wollongong, Australia
Current Conditions -  °F | °C
As of 8:00 PM on Thursday 23 Oct 2014 (Local Time) from YSSY Reporting Station
Broken Clouds Broken Clouds  
Wind Chill: 20°   Ceiling: 28000
Heat Index: 20°   Visibility: 6mi
Dew Point: 17°   Wind: 8mph
Humidity: 83%   Direction: 160°SSE
Pressure: 30.06"   Gusts: NA
Location:  34.43°S, 150.9°E
Report Text: YSSY 230900Z 16007KT 9999 FEW030 BKN280 20/17 Q1018 NOSIG
Loading
Personal Weather Stations






























Interactive Weather Map
Tropical Storm Tracking
New forecast layout! Learn more

10-Day Weather Forecast

Advertisements
Track Severe Weather on mobile